Time,TemperatureF,DewpointF,PressureIn,WindDirection,WindDirectionDegrees,WindSpeedMPH,WindSpeedGustMPH,Humidity,HourlyPrecipIn,Conditions,Clouds,dailyrainin,SoftwareType,DateUTC
2013-06-21 00:10:00,65.9,65.0,30.19,NNW,327,0.0,0.0,95,0.00,,,0.00,weatherlink.com 1.10,2013-06-21 04:10:00,
2013-06-21 00:25:00,65.8,64.0,30.19,NNW,327,0.0,0.0,95,0.00,,,0.00,weatherlink.com 1.10,2013-06-21 04:25:00,
2013-06-21 00:40:00,65.7,64.0,30.19,NNW,327,0.0,0.0,95,0.00,,,0.00,weatherlink.com 1.10,2013-06-21 04:40:00,
2013-06-21 00:55:00,65.7,64.0,30.19,NNW,327,0.0,0.0,95,0.00,,,0.00,weatherlink.com 1.10,2013-06-21 04:55:00,
2013-06-21 01:10:00,65.7,64.0,30.19,NNW,327,0.0,0.0,95,0.00,,,0.00,weatherlink.com 1.10,2013-06-21 05:10:00,
2013-06-21 01:25:00,65.7,64.0,30.18,NNW,327,0.0,0.0,94,0.00,,,0.00,weatherlink.com 1.10,2013-06-21 05:25:00,
2013-06-21 01:40:00,65.7,64.0,30.18,NNW,327,0.0,0.0,94,0.00,,,0.00,weatherlink.com 1.10,2013-06-21 05:40:00,
2013-06-21 01:55:00,65.7,64.0,30.18,NNW,327,0.0,0.0,94,0.00,,,0.00,weatherlink.com 1.10,2013-06-21 05:55:00,
2013-06-21 02:10:00,65.5,64.0,30.18,NNW,327,0.0,0.0,94,0.00,,,0.00,weatherlink.com 1.10,2013-06-21 06:10:00,
2013-06-21 02:25:00,65.4,64.0,30.18,NNW,327,0.0,0.0,94,0.00,,,0.00,weatherlink.com 1.10,2013-06-21 06:25:00,
2013-06-21 02:40:00,65.1,63.0,30.17,NNW,327,0.0,0.0,94,0.00,,,0.00,weatherlink.com 1.10,2013-06-21 06:40:00,
2013-06-21 02:55:00,64.9,63.0,30.17,NNW,327,0.0,0.0,94,0.00,,,0.00,weatherlink.com 1.10,2013-06-21 06:55:00,
2013-06-21 03:10:00,64.8,63.0,30.17,NNW,327,0.0,0.0,94,0.00,,,0.00,weatherlink.com 1.10,2013-06-21 07:10:00,
2013-06-21 03:25:00,64.8,63.0,30.18,NNW,327,0.0,0.0,93,0.00,,,0.00,weatherlink.com 1.10,2013-06-21 07:25:00,
2013-06-21 03:40:00,64.7,62.0,30.18,NNW,327,0.0,0.0,92,0.00,,,0.00,weatherlink.com 1.10,2013-06-21 07:40:00,
2013-06-21 03:55:00,64.4,62.0,30.17,NNW,327,0.0,0.0,92,0.00,,,0.00,weatherlink.com 1.10,2013-06-21 07:55:00,
2013-06-21 04:10:00,64.1,62.0,30.18,NNW,327,0.0,0.0,93,0.00,,,0.00,weatherlink.com 1.10,2013-06-21 08:10:00,
2013-06-21 04:25:00,63.9,62.0,30.18,NNW,327,0.0,0.0,93,0.00,,,0.00,weatherlink.com 1.10,2013-06-21 08:25:00,
2013-06-21 04:40:00,63.6,62.0,30.18,NNW,327,0.0,0.0,94,0.00,,,0.00,weatherlink.com 1.10,2013-06-21 08:40:00,
2013-06-21 04:55:00,63.5,62.0,30.18,NNW,327,0.0,0.0,93,0.00,,,0.00,weatherlink.com 1.10,2013-06-21 08:55:00,
2013-06-21 05:10:00,63.2,61.0,30.18,NNW,327,0.0,0.0,93,0.00,,,0.00,weatherlink.com 1.10,2013-06-21 09:10:00,
2013-06-21 05:25:00,63.1,61.0,30.18,NNW,327,0.0,0.0,92,0.00,,,0.00,weatherlink.com 1.10,2013-06-21 09:25:00,
2013-06-21 05:40:00,63.1,61.0,30.18,NNW,327,0.0,0.0,92,0.00,,,0.00,weatherlink.com 1.10,2013-06-21 09:40:00,
2013-06-21 05:55:00,62.9,61.0,30.19,NNW,327,0.0,0.0,92,0.00,,,0.00,weatherlink.com 1.10,2013-06-21 09:55:00,
2013-06-21 06:10:00,62.6,60.0,30.19,NNW,327,0.0,0.0,92,0.00,,,0.00,weatherlink.com 1.10,2013-06-21 10:10:00,
2013-06-21 06:25:00,62.4,60.0,30.20,NNW,327,0.0,0.0,92,0.00,,,0.00,weatherlink.com 1.10,2013-06-21 10:25:00,
2013-06-21 06:40:00,62.4,60.0,30.20,NNW,327,0.0,0.0,92,0.00,,,0.00,weatherlink.com 1.10,2013-06-21 10:40:00,
2013-06-21 06:56:00,62.4,60.0,30.20,NNW,327,0.0,0.0,91,0.00,,,0.00,weatherlink.com 1.10,2013-06-21 10:56:00,
2013-06-21 07:11:00,62.6,60.0,30.21,NNW,327,0.0,0.0,91,0.00,,,0.00,weatherlink.com 1.10,2013-06-21 11:11:00,
2013-06-21 07:26:00,62.9,60.0,30.21,NNW,327,0.0,0.0,91,0.00,,,0.00,weatherlink.com 1.10,2013-06-21 11:26:00,
2013-06-21 07:41:00,63.5,61.0,30.21,NNW,327,0.0,0.0,90,0.00,,,0.00,weatherlink.com 1.10,2013-06-21 11:41:00,
2013-06-21 07:56:00,64.3,61.0,30.21,NNW,337,0.0,2.0,88,0.00,,,0.00,weatherlink.com 1.10,2013-06-21 11:56:00,
2013-06-21 08:11:00,65.2,61.0,30.22,ENE,64,1.0,2.0,85,0.00,,,0.00,weatherlink.com 1.10,2013-06-21 12:11:00,
2013-06-21 08:26:00,66.2,62.0,30.23,NE,37,0.0,1.0,85,0.00,,,0.00,weatherlink.com 1.10,2013-06-21 12:26:00,
2013-06-21 08:41:00,67.1,61.0,30.23,North,11,0.0,3.0,81,0.00,,,0.00,weatherlink.com 1.10,2013-06-21 12:41:00,
2013-06-21 08:56:00,67.9,61.0,30.23,North,360,1.0,2.0,79,0.00,,,0.00,weatherlink.com 1.10,2013-06-21 12:56:00,
2013-06-21 09:11:00,68.8,62.0,30.23,ENE,60,0.0,2.0,78,0.00,,,0.00,weatherlink.com 1.10,2013-06-21 13:11:00,
2013-06-21 09:26:00,69.7,62.0,30.23,NE,49,0.0,2.0,76,0.00,,,0.00,weatherlink.com 1.10,2013-06-21 13:26:00,
2013-06-21 09:56:00,71.6,62.0,30.23,NNE,20,2.0,4.0,71,0.00,,,0.00,weatherlink.com 1.10,2013-06-21 13:56:00,
2013-06-21 10:11:00,72.4,63.0,30.23,East,88,0.0,2.0,73,0.00,,,0.00,weatherlink.com 1.10,2013-06-21 14:11:00,
2013-06-21 10:26:00,72.9,63.0,30.23,ESE,117,0.0,2.0,71,0.00,,,0.00,weatherlink.com 1.10,2013-06-21 14:26:00,
2013-06-21 10:41:00,73.4,64.0,30.23,South,184,0.0,2.0,73,0.00,,,0.00,weatherlink.com 1.10,2013-06-21 14:41:00,
2013-06-21 10:56:00,74.0,64.0,30.23,East,92,2.0,2.0,72,0.00,,,0.00,weatherlink.com 1.10,2013-06-21 14:56:00,
2013-06-21 11:11:00,74.6,64.0,30.22,East,88,1.0,3.0,69,0.00,,,0.00,weatherlink.com 1.10,2013-06-21 15:11:00,
2013-06-21 11:26:00,75.2,65.0,30.23,East,87,2.0,3.0,70,0.00,,,0.00,weatherlink.com 1.10,2013-06-21 15:26:00,
2013-06-21 11:41:00,75.8,65.0,30.22,East,97,1.0,6.0,70,0.00,,,0.00,weatherlink.com 1.10,2013-06-21 15:41:00,
2013-06-21 11:56:00,76.4,66.0,30.22,ENE,77,0.0,3.0,69,0.00,,,0.00,weatherlink.com 1.10,2013-06-21 15:56:00,
2013-06-21 12:11:00,78.1,66.0,30.22,East,88,0.0,4.0,67,0.00,,,0.00,weatherlink.com 1.10,2013-06-21 16:11:00,
2013-06-21 12:26:00,78.0,66.0,30.22,NNE,13,0.0,2.0,67,0.00,,,0.00,weatherlink.com 1.10,2013-06-21 16:26:00,
2013-06-21 12:56:00,79.1,67.0,30.22,NNE,26,1.0,3.0,66,0.00,,,0.00,weatherlink.com 1.10,2013-06-21 16:56:00,
2013-06-21 13:26:00,79.5,66.0,30.21,ENE,78,2.0,2.0,63,0.00,,,0.00,weatherlink.com 1.10,2013-06-21 17:26:00,
2013-06-21 13:57:00,81.1,66.0,30.20,ENE,59,0.0,3.0,61,0.00,,,0.00,weatherlink.com 1.10,2013-06-21 17:57:00,
2013-06-21 14:27:00,81.7,68.0,30.20,NNE,21,1.0,3.0,63,0.00,,,0.00,weatherlink.com 1.10,2013-06-21 18:27:00,
2013-06-21 14:42:00,82.4,69.0,30.19,East,80,1.0,3.0,65,0.00,,,0.00,weatherlink.com 1.10,2013-06-21 18:42:00,
2013-06-21 14:57:00,82.3,67.0,30.19,East,89,0.0,5.0,60,0.00,,,0.00,weatherlink.com 1.10,2013-06-21 18:57:00,
2013-06-21 15:12:00,82.3,68.0,30.19,East,101,1.0,3.0,62,0.00,,,0.00,weatherlink.com 1.10,2013-06-21 19:12:00,
2013-06-21 15:27:00,82.3,66.0,30.18,East,86,1.0,6.0,59,0.00,,,0.00,weatherlink.com 1.10,2013-06-21 19:27:00,
2013-06-21 15:57:00,83.3,66.0,30.18,East,101,1.0,5.0,57,0.00,,,0.00,weatherlink.com 1.10,2013-06-21 19:57:00,
2013-06-21 16:12:00,83.7,66.0,30.17,East,80,0.0,4.0,56,0.00,,,0.00,weatherlink.com 1.10,2013-06-21 20:12:00,
2013-06-21 16:27:00,83.5,67.0,30.16,NNE,16,0.0,4.0,58,0.00,,,0.00,weatherlink.com 1.10,2013-06-21 20:27:00,
2013-06-21 16:42:00,83.2,66.0,30.16,NE,49,0.0,2.0,57,0.00,,,0.00,weatherlink.com 1.10,2013-06-21 20:42:00,
2013-06-21 16:57:00,83.9,66.0,30.16,NNE,26,2.0,3.0,56,0.00,,,0.00,weatherlink.com 1.10,2013-06-21 20:57:00,
2013-06-21 17:12:00,84.4,66.0,30.16,NE,54,1.0,3.0,54,0.00,,,0.00,weatherlink.com 1.10,2013-06-21 21:12:00,
2013-06-21 17:27:00,84.8,67.0,30.16,NE,53,0.0,4.0,55,0.00,,,0.00,weatherlink.com 1.10,2013-06-21 21:27:00,
2013-06-21 17:57:00,84.7,64.0,30.16,NE,42,0.0,2.0,50,0.00,,,0.00,weatherlink.com 1.10,2013-06-21 21:57:00,
2013-06-21 18:12:00,84.7,65.0,30.15,ENE,71,1.0,3.0,51,0.00,,,0.00,weatherlink.com 1.10,2013-06-21 22:12:00,
2013-06-21 18:27:00,84.5,65.0,30.15,East,98,0.0,2.0,52,0.00,,,0.00,weatherlink.com 1.10,2013-06-21 22:27:00,
2013-06-21 18:42:00,84.1,64.0,30.14,ENE,76,0.0,3.0,51,0.00,,,0.00,weatherlink.com 1.10,2013-06-21 22:42:00,
2013-06-21 18:57:00,83.5,65.0,30.14,WNW,294,1.0,2.0,53,0.00,,,0.00,weatherlink.com 1.10,2013-06-21 22:57:00,
2013-06-21 19:12:00,83.0,66.0,30.15,WNW,300,1.0,1.0,56,0.00,,,0.00,weatherlink.com 1.10,2013-06-21 23:12:00,
2013-06-21 19:27:00,82.5,65.0,30.15,ENE,66,0.0,1.0,56,0.00,,,0.00,weatherlink.com 1.10,2013-06-21 23:27:00,
2013-06-21 19:42:00,81.7,64.0,30.16,NNW,342,1.0,2.0,56,0.00,,,0.00,weatherlink.com 1.10,2013-06-21 23:42:00,
2013-06-21 19:57:00,79.3,64.0,30.15,NNW,342,0.0,1.0,60,0.00,,,0.00,weatherlink.com 1.10,2013-06-21 23:57:00,
2013-06-21 20:12:00,77.2,65.0,30.15,NNW,342,0.0,0.0,65,0.00,,,0.00,weatherlink.com 1.10,2013-06-22 00:12:00,
2013-06-21 20:27:00,75.2,64.0,30.15,NNW,342,0.0,0.0,69,0.00,,,0.00,weatherlink.com 1.10,2013-06-22 00:27:00,
2013-06-21 20:42:00,72.9,64.0,30.15,NNW,342,0.0,0.0,74,0.00,,,0.00,weatherlink.com 1.10,2013-06-22 00:42:00,
2013-06-21 20:57:00,71.0,63.0,30.15,NNW,342,0.0,0.0,77,0.00,,,0.00,weatherlink.com 1.10,2013-06-22 00:57:00,
2013-06-21 21:12:00,69.6,63.0,30.15,NNW,342,0.0,0.0,80,0.00,,,0.00,weatherlink.com 1.10,2013-06-22 01:12:00,
2013-06-21 21:27:00,68.4,63.0,30.16,NNW,342,0.0,0.0,84,0.00,,,0.00,weatherlink.com 1.10,2013-06-22 01:27:00,
2013-06-21 21:42:00,67.4,63.0,30.16,NNW,342,0.0,0.0,85,0.00,,,0.00,weatherlink.com 1.10,2013-06-22 01:42:00,
2013-06-21 21:57:00,66.7,63.0,30.16,NNW,342,0.0,0.0,87,0.00,,,0.00,weatherlink.com 1.10,2013-06-22 01:57:00,
2013-06-21 22:12:00,66.0,62.0,30.17,NNW,342,0.0,0.0,87,0.00,,,0.00,weatherlink.com 1.10,2013-06-22 02:12:00,
2013-06-21 22:27:00,65.4,62.0,30.17,NNW,342,0.0,0.0,89,0.00,,,0.00,weatherlink.com 1.10,2013-06-22 02:27:00,
2013-06-21 22:42:00,65.1,62.0,30.17,NNW,342,0.0,0.0,89,0.00,,,0.00,weatherlink.com 1.10,2013-06-22 02:42:00,
2013-06-21 22:57:00,64.7,62.0,30.18,NNW,342,0.0,0.0,90,0.00,,,0.00,weatherlink.com 1.10,2013-06-22 02:57:00,
2013-06-21 23:12:00,64.5,62.0,30.18,NNW,342,0.0,0.0,90,0.00,,,0.00,weatherlink.com 1.10,2013-06-22 03:12:00,
2013-06-21 23:27:00,64.3,61.0,30.18,NNW,342,0.0,0.0,89,0.00,,,0.00,weatherlink.com 1.10,2013-06-22 03:27:00,
2013-06-21 23:42:00,64.3,61.0,30.17,NNW,342,0.0,0.0,90,0.00,,,0.00,weatherlink.com 1.10,2013-06-22 03:42:00,
2013-06-21 23:57:00,64.3,61.0,30.18,NNW,342,0.0,0.0,88,0.00,,,0.00,weatherlink.com 1.10,2013-06-22 03:57:00,